createdAt,value
2023-11-01T00:01:03.530Z,98410.88
2023-11-01T00:03:32.928Z,98411.16
2023-11-01T00:06:00.805Z,98410.06
2023-11-01T00:08:28.346Z,98413.91
2023-11-01T00:10:55.582Z,98404.25
2023-11-01T00:13:30.732Z,98410.88
2023-11-01T00:15:57.516Z,98403.19
2023-11-01T00:18:24.789Z,98394.72
2023-11-01T00:20:52.268Z,98392.75
2023-11-01T00:23:20.402Z,98383.97
2023-11-01T00:25:47.620Z,98374.34
2023-11-01T00:28:18.995Z,98365.28
2023-11-01T00:30:50.840Z,98357.59
2023-11-01T00:36:12.582Z,98347.16
2023-11-01T00:38:43.107Z,98338.41
2023-11-01T00:41:09.961Z,98332.91
2023-11-01T00:43:37.642Z,98329.06
2023-11-01T00:46:07.042Z,98310.41
2023-11-01T00:48:34.477Z,98307.91
2023-11-01T00:51:02.217Z,98304.34
2023-11-01T00:53:29.848Z,98309.56
2023-11-01T00:55:56.828Z,98304.06
2023-11-01T00:58:24.931Z,98298.28
2023-11-01T01:00:52.533Z,98287.59
2023-11-01T01:03:24.257Z,98282.38
2023-11-01T01:08:48.751Z,98279.34
2023-11-01T01:11:23.683Z,98265.88
2023-11-01T01:13:51.583Z,98262.59
2023-11-01T01:16:19.288Z,98257.41
2023-11-01T01:18:48.271Z,98250.50
2023-11-01T01:21:15.752Z,98240.66
2023-11-01T01:23:45.370Z,98238.97
2023-11-01T01:31:54.173Z,98207.72
2023-11-01T01:34:22.281Z,98197.50
2023-11-01T01:36:49.016Z,98197.84
2023-11-01T01:39:15.760Z,98193.16
2023-11-01T01:41:42.540Z,98177.47
2023-11-01T01:44:09.552Z,98167.91
2023-11-01T01:46:39.242Z,98166.31
2023-11-01T01:57:45.953Z,98142.94
2023-11-01T02:00:14.953Z,98128.91
2023-11-01T02:02:42.631Z,98122.91
2023-11-01T02:05:10.787Z,98114.38
2023-11-01T02:07:38.902Z,98110.75
2023-11-01T02:10:07.326Z,98099.06
2023-11-01T02:12:36.881Z,98096.66
2023-11-01T02:15:04.250Z,98086.72
2023-11-01T02:17:31.080Z,98083.69
2023-11-01T02:22:50.129Z,98062.75
2023-11-01T02:25:18.332Z,98050.28
2023-11-01T02:27:47.063Z,98049.59
2023-11-01T02:33:04.975Z,98031.72
2023-11-01T02:35:31.783Z,98025.63
2023-11-01T02:37:58.512Z,98028.72
2023-11-01T02:40:31.196Z,98009.69
2023-11-01T02:42:58.020Z,98013.19
2023-11-01T02:45:24.795Z,98001.25
2023-11-01T02:50:42.084Z,97996.03
2023-11-01T02:53:08.936Z,97984.47
2023-11-01T02:55:37.000Z,97968.44
2023-11-01T02:58:04.310Z,97966.03
2023-11-01T03:00:32.180Z,97955.44
2023-11-01T03:02:59.817Z,97958.41
2023-11-01T03:05:27.416Z,97951.00
2023-11-01T03:07:55.847Z,97944.16
2023-11-01T03:10:24.306Z,97947.00
2023-11-01T03:12:53.229Z,97932.22
2023-11-01T03:15:20.113Z,97926.69
2023-11-01T03:17:48.023Z,97911.78
2023-11-01T03:20:14.935Z,97908.72
2023-11-01T03:22:41.690Z,97904.53
2023-11-01T03:25:11.997Z,97883.38
2023-11-01T03:27:42.299Z,97886.75
2023-11-01T03:30:11.277Z,97889.09
2023-11-01T03:32:41.090Z,97875.97
2023-11-01T03:35:09.648Z,97864.97
2023-11-01T03:37:37.504Z,97860.78
2023-11-01T03:40:06.240Z,97849.81
2023-11-01T03:42:33.943Z,97851.44
2023-11-01T03:45:01.393Z,97841.19
2023-11-01T03:47:30.178Z,97833.47
2023-11-01T03:49:57.522Z,97830.78
2023-11-01T03:52:25.113Z,97834.41
2023-11-01T03:54:52.454Z,97829.00
2023-11-01T03:57:19.939Z,97830.03
2023-11-01T03:59:47.652Z,97817.06
2023-11-01T04:10:50.658Z,97808.59
2023-11-01T04:13:17.975Z,97795.53
2023-11-01T04:15:45.403Z,97793.41
2023-11-01T04:21:06.529Z,97786.72
2023-11-01T04:23:36.521Z,97775.50
2023-11-01T04:26:03.499Z,97763.53
2023-11-01T04:28:31.311Z,97746.53
2023-11-01T04:31:01.549Z,97757.22
2023-11-01T04:33:28.906Z,97742.81
2023-11-01T04:38:50.109Z,97737.25
2023-11-01T04:41:17.942Z,97724.84
2023-11-01T04:43:45.406Z,97707.97
2023-11-01T04:46:13.001Z,97700.38
2023-11-01T04:48:40.269Z,97694.50
2023-11-01T04:51:08.232Z,97696.50
2023-11-01T04:53:38.071Z,97681.72
2023-11-01T04:56:07.881Z,97685.59
2023-11-01T04:58:35.073Z,97678.19
2023-11-01T05:09:35.898Z,97647.53
2023-11-01T05:12:05.293Z,97646.66
2023-11-01T05:14:32.641Z,97632.78
2023-11-01T05:17:02.208Z,97620.56
2023-11-01T05:19:29.920Z,97613.81
2023-11-01T05:21:57.263Z,97612.59
2023-11-01T05:24:24.712Z,97605.69
2023-11-01T05:27:00.455Z,97606.06
2023-11-01T05:29:28.653Z,97593.84
2023-11-01T05:31:56.313Z,97593.63
2023-11-01T05:34:23.508Z,97578.97
2023-11-01T05:36:51.602Z,97579.88
2023-11-01T05:39:23.179Z,97571.81
2023-11-01T05:41:50.630Z,97561.13
2023-11-01T05:44:17.955Z,97546.44
2023-11-01T05:46:46.448Z,97543.91
2023-11-01T05:49:13.930Z,97544.50
2023-11-01T05:51:40.603Z,97533.00
2023-11-01T05:56:59.974Z,97522.88
2023-11-01T05:59:27.268Z,97520.06
2023-11-01T06:01:56.184Z,97511.75
2023-11-01T06:04:24.249Z,97506.16
2023-11-01T06:06:54.053Z,97500.94
2023-11-01T06:09:21.082Z,97496.78
2023-11-01T06:14:43.443Z,97479.53
2023-11-01T06:17:12.567Z,97478.44
2023-11-01T06:19:39.557Z,97482.00
2023-11-01T06:22:07.580Z,97469.63
2023-11-01T06:24:38.319Z,97471.59
2023-11-01T06:27:06.004Z,97468.59
2023-11-01T06:29:33.825Z,97479.22
2023-11-01T06:32:01.216Z,97466.28
2023-11-01T06:34:30.045Z,97457.59
2023-11-01T06:42:40.059Z,97460.59
2023-11-01T06:45:07.869Z,97470.69
2023-11-01T06:47:35.416Z,97469.44
2023-11-01T06:55:47.221Z,97498.59
2023-11-01T06:58:14.547Z,97487.91
2023-11-01T07:00:41.812Z,97488.91
2023-11-01T07:03:11.957Z,97493.63
2023-11-01T07:05:49.679Z,97503.50
2023-11-01T07:08:17.295Z,97505.34
2023-11-01T07:10:45.767Z,97503.72
2023-11-01T07:13:12.477Z,97513.09
2023-11-01T07:18:29.946Z,97506.06
2023-11-01T07:20:58.106Z,97507.59
2023-11-01T07:23:24.879Z,97507.59
2023-11-01T07:25:51.637Z,97518.28
2023-11-01T07:28:18.925Z,97507.72
2023-11-01T07:30:45.742Z,97513.19
2023-11-01T07:33:15.179Z,97517.59
2023-11-01T07:35:42.033Z,97518.41
2023-11-01T07:38:10.569Z,97512.28
2023-11-01T07:40:37.461Z,97525.16
2023-11-01T07:43:04.995Z,97526.16
2023-11-01T07:45:32.594Z,97521.38
2023-11-01T07:53:47.331Z,97522.47
2023-11-01T07:56:14.123Z,97512.38
2023-11-01T07:58:41.396Z,97511.25
2023-11-01T08:03:59.653Z,97498.09
2023-11-01T08:06:29.610Z,97497.31
2023-11-01T08:08:58.487Z,97497.81
2023-11-01T08:11:25.368Z,97489.97
2023-11-01T08:13:52.095Z,97492.59
2023-11-01T08:16:18.944Z,97491.91
2023-11-01T08:18:46.091Z,97486.38
2023-11-01T08:21:12.857Z,97488.72
2023-11-01T08:23:39.673Z,97490.25
2023-11-01T08:26:08.371Z,97500.66
2023-11-01T08:28:35.140Z,97491.47
2023-11-01T08:31:02.734Z,97490.16
2023-11-01T08:33:29.790Z,97493.03
2023-11-01T08:35:56.680Z,97493.72
2023-11-01T08:38:23.491Z,97500.03
2023-11-01T08:43:47.710Z,97497.22
2023-11-01T08:46:15.464Z,97500.03
2023-11-01T08:48:42.445Z,97504.94
2023-11-01T08:54:01.061Z,97484.94
2023-11-01T08:56:27.877Z,97490.84
2023-11-01T08:58:56.779Z,97492.47
2023-11-01T09:01:23.794Z,97480.47
2023-11-01T09:03:51.218Z,97476.19
2023-11-01T09:06:18.282Z,97478.22
2023-11-01T09:08:45.165Z,97478.00
2023-11-01T09:11:11.959Z,97475.03
2023-11-01T09:13:38.618Z,97482.50
2023-11-01T09:21:49.172Z,97466.16
2023-11-01T09:24:15.945Z,97470.69
2023-11-01T09:26:42.706Z,97458.94
2023-11-01T09:34:54.640Z,97450.41
2023-11-01T09:37:23.840Z,97446.59
2023-11-01T09:39:51.505Z,97442.63
2023-11-01T09:42:21.866Z,97443.59
2023-11-01T09:44:49.813Z,97440.06
2023-11-01T09:47:18.758Z,97437.09
2023-11-01T09:49:46.300Z,97431.81
2023-11-01T09:52:14.008Z,97423.13
2023-11-01T09:54:40.793Z,97423.94
2023-11-01T09:57:13.641Z,97420.28
2023-11-01T09:59:40.799Z,97419.25
2023-11-01T10:02:12.008Z,97414.03
2023-11-01T10:04:41.116Z,97408.97
2023-11-01T10:07:08.329Z,97401.09
2023-11-01T10:09:36.910Z,97398.06
2023-11-01T10:12:04.336Z,97391.19
2023-11-01T10:14:32.747Z,97383.28
2023-11-01T10:17:00.269Z,97386.66
2023-11-01T10:19:28.814Z,97376.31
2023-11-01T10:21:57.785Z,97368.44
2023-11-01T10:24:25.406Z,97370.25
2023-11-01T10:26:55.003Z,97366.81
2023-11-01T10:29:23.692Z,97366.97
2023-11-01T10:31:54.839Z,97372.72
2023-11-01T10:34:28.094Z,97379.66
2023-11-01T10:36:58.929Z,97361.97
2023-11-01T10:39:26.836Z,97361.03
2023-11-01T10:41:56.093Z,97366.63
2023-11-01T10:44:24.984Z,97371.69
2023-11-01T10:46:51.911Z,97365.56
2023-11-01T10:49:18.677Z,97359.19
2023-11-01T10:51:46.223Z,97362.94
2023-11-01T10:54:15.140Z,97351.41
2023-11-01T10:56:43.336Z,97344.47
2023-11-01T11:02:18.218Z,97341.41
2023-11-01T11:04:54.251Z,97334.91
2023-11-01T11:07:32.333Z,97331.22
2023-11-01T11:10:29.153Z,97330.25
2023-11-01T11:13:39.075Z,97333.03
2023-11-01T11:16:06.617Z,97325.66
2023-11-01T11:18:56.349Z,97326.69
2023-11-01T11:21:54.426Z,97331.38
2023-11-01T11:24:47.920Z,97327.50
2023-11-01T11:27:50.619Z,97328.72
2023-11-01T11:30:59.028Z,97329.72
2023-11-01T11:33:25.850Z,97305.41
2023-11-01T11:36:14.424Z,97309.50
2023-11-01T11:38:49.807Z,97295.97
2023-11-01T11:44:13.743Z,97282.69
2023-11-01T11:46:46.350Z,97284.38
2023-11-01T11:49:23.910Z,97299.78
2023-11-01T11:51:52.395Z,97300.03
2023-11-01T11:54:20.209Z,97296.97
2023-11-01T11:56:50.874Z,97288.91
2023-11-01T11:59:23.734Z,97310.56
2023-11-01T12:01:53.630Z,97311.28
2023-11-01T12:04:20.748Z,97312.50
2023-11-01T12:06:50.086Z,97317.41
2023-11-01T12:15:07.882Z,97314.56
2023-11-01T12:17:34.827Z,97324.53
2023-11-01T12:20:01.638Z,97323.81
2023-11-01T12:22:28.966Z,97318.38
2023-11-01T12:24:56.683Z,97308.25
2023-11-01T12:27:30.334Z,97308.16
2023-11-01T12:29:57.419Z,97311.50
2023-11-01T12:32:31.710Z,97312.00
2023-11-01T12:35:03.579Z,97313.88
2023-11-01T12:37:32.143Z,97313.44
2023-11-01T12:40:05.456Z,97329.34
2023-11-01T12:45:25.720Z,97330.84
2023-11-01T12:47:54.800Z,97326.72
2023-11-01T12:50:24.784Z,97327.72
2023-11-01T12:55:43.028Z,97334.59
2023-11-01T15:18:34.922Z,97317.25
2023-11-01T15:21:03.387Z,97307.38
2023-11-01T15:23:30.192Z,97300.84
2023-11-01T15:25:56.898Z,97299.91
2023-11-01T15:28:24.405Z,97303.50
2023-11-01T15:30:51.818Z,97304.81
2023-11-01T15:33:22.250Z,97298.81
2023-11-01T15:35:51.469Z,97287.72
2023-11-01T15:38:19.050Z,97281.72
2023-11-01T15:40:46.870Z,97285.06
2023-11-01T15:43:14.743Z,97280.56
2023-11-01T15:45:44.112Z,97266.13
2023-11-01T15:48:15.501Z,97266.75
2023-11-01T15:50:43.274Z,97268.13
2023-11-01T15:53:14.292Z,97266.91
2023-11-01T15:55:43.815Z,97272.97
2023-11-01T15:58:11.026Z,97265.38
2023-11-01T16:00:38.247Z,97267.38
2023-11-01T16:03:05.288Z,97265.72
2023-11-01T16:05:32.942Z,97271.09
2023-11-01T16:07:59.697Z,97267.63
2023-11-01T16:10:30.234Z,97271.22
2023-11-01T16:13:00.681Z,97265.41
2023-11-01T16:15:28.498Z,97261.84
2023-11-01T16:17:57.003Z,97260.31
2023-11-01T16:20:23.804Z,97272.47
2023-11-01T16:22:50.515Z,97265.50
2023-11-01T16:25:17.995Z,97262.06
2023-11-01T16:27:46.999Z,97258.06
2023-11-01T16:30:14.235Z,97261.34
2023-11-01T16:32:41.122Z,97278.34
2023-11-01T16:35:09.342Z,97292.78
2023-11-01T16:37:36.261Z,97303.88
2023-11-01T16:48:43.239Z,97276.09
2023-11-01T16:51:13.564Z,97262.69
2023-11-01T16:53:43.825Z,97263.53
2023-11-01T16:56:14.729Z,97258.00
2023-11-01T16:58:43.425Z,97262.56
2023-11-01T17:01:10.129Z,97267.34
2023-11-01T17:09:19.838Z,97262.25
2023-11-01T17:11:50.106Z,97254.03
2023-11-01T17:14:19.063Z,97239.03
2023-11-01T17:19:42.947Z,97227.66
2023-11-01T17:22:37.623Z,97227.09
2023-11-01T17:25:26.578Z,97232.31
2023-11-01T17:27:54.151Z,97232.03
2023-11-01T17:30:22.422Z,97230.69
2023-11-01T17:32:55.777Z,97234.81
2023-11-01T17:35:22.546Z,97239.13
2023-11-01T17:37:51.395Z,97234.53
2023-11-01T17:40:22.665Z,97238.28
2023-11-01T17:42:50.266Z,97235.72
2023-11-01T17:45:17.141Z,97243.41
2023-11-01T17:47:46.050Z,97241.19
2023-11-01T17:50:13.469Z,97236.28
2023-11-01T17:52:40.529Z,97238.22
2023-11-01T17:55:08.875Z,97241.13
2023-11-01T17:57:39.852Z,97237.47
2023-11-01T18:00:09.194Z,97241.56
2023-11-01T18:03:09.250Z,97244.09
2023-11-01T18:05:38.660Z,97248.16
2023-11-01T18:08:09.962Z,97250.56
2023-11-01T18:13:37.173Z,97237.16
2023-11-01T18:16:07.033Z,97222.59
2023-11-01T18:21:39.288Z,97206.06
2023-11-01T18:24:08.771Z,97204.63
2023-11-01T18:26:35.649Z,97199.13
2023-11-01T18:29:04.688Z,97188.69
2023-11-01T18:31:35.179Z,97185.81
2023-11-01T18:34:04.156Z,97181.56
2023-11-01T18:39:29.853Z,97170.69
2023-11-01T18:41:57.456Z,97170.88
2023-11-01T18:44:28.402Z,97169.50
2023-11-01T18:50:00.331Z,97160.28
2023-11-01T18:52:27.720Z,97155.41
2023-11-01T18:54:56.885Z,97142.00
2023-11-01T19:03:16.332Z,97117.81
2023-11-01T19:08:40.016Z,97115.84
2023-11-01T19:11:08.153Z,97106.25
2023-11-01T19:13:35.457Z,97099.56
2023-11-01T19:16:15.061Z,97094.88
2023-11-01T19:18:43.191Z,97090.97
2023-11-01T19:21:10.264Z,97098.00
2023-11-01T19:23:38.138Z,97086.75
2023-11-01T19:26:06.253Z,97089.19
2023-11-01T19:28:37.401Z,97081.75
2023-11-01T19:31:04.748Z,97078.34
2023-11-01T19:33:33.985Z,97074.06
2023-11-01T19:36:10.863Z,97063.19
2023-11-01T19:38:42.439Z,97068.59
2023-11-01T19:41:10.148Z,97064.44
2023-11-01T19:43:39.931Z,97055.13
2023-11-01T19:54:44.606Z,97016.41
2023-11-01T19:57:12.360Z,97011.16
2023-11-01T19:59:40.870Z,97001.75
2023-11-01T20:02:09.560Z,96994.16
2023-11-01T20:04:37.690Z,96994.31
2023-11-01T20:07:06.672Z,96978.19
2023-11-01T20:09:34.639Z,96986.81
2023-11-01T20:12:01.850Z,96984.66
2023-11-01T20:14:29.212Z,96975.41
2023-11-01T20:16:58.181Z,96965.09
2023-11-01T20:19:25.768Z,96954.34
2023-11-01T20:21:53.768Z,96953.28
2023-11-01T20:24:22.629Z,96945.84
2023-11-01T20:26:49.347Z,96940.56
2023-11-01T20:29:17.177Z,96935.25
2023-11-01T20:31:45.822Z,96928.81
2023-11-01T20:34:14.013Z,96920.09
2023-11-01T20:36:44.003Z,96916.69
2023-11-01T20:39:11.698Z,96896.53
2023-11-01T20:41:40.530Z,96905.75
2023-11-01T20:44:09.649Z,96898.31
2023-11-01T20:46:36.881Z,96897.56
2023-11-01T20:49:04.768Z,96881.91
2023-11-01T20:51:33.942Z,96870.09
2023-11-01T20:54:01.386Z,96863.81
2023-11-01T20:56:28.788Z,96854.66
2023-11-01T20:58:56.690Z,96848.59
2023-11-01T21:01:23.658Z,96844.13
2023-11-01T21:03:50.706Z,96842.16
2023-11-01T21:06:18.607Z,96837.34
2023-11-01T21:08:47.635Z,96837.84
2023-11-01T21:11:14.359Z,96839.78
2023-11-01T21:13:42.010Z,96833.53
2023-11-01T21:16:09.481Z,96818.41
2023-11-01T21:18:36.415Z,96813.00
2023-11-01T21:21:05.243Z,96799.63
2023-11-01T21:23:32.663Z,96791.97
2023-11-01T21:26:01.449Z,96795.06
2023-11-01T21:31:20.135Z,96780.28
2023-11-01T21:33:47.058Z,96772.25
2023-11-01T21:36:14.092Z,96766.91
2023-11-01T21:38:43.454Z,96756.94
2023-11-01T21:41:13.921Z,96747.72
2023-11-01T21:43:53.681Z,96740.38
2023-11-01T21:49:24.943Z,96713.44
2023-11-01T21:51:52.419Z,96699.19
2023-11-01T21:54:23.556Z,96693.84
2023-11-01T21:56:55.462Z,96683.16
2023-11-01T21:59:23.236Z,96665.94
2023-11-01T22:01:51.401Z,96663.72
2023-11-01T22:04:22.547Z,96656.19
2023-11-01T22:06:51.050Z,96648.72
2023-11-01T22:09:19.658Z,96634.72
2023-11-01T22:11:49.939Z,96626.13
2023-11-01T22:14:29.424Z,96608.72
2023-11-01T22:19:48.618Z,96583.84
2023-11-01T22:22:57.649Z,96572.22
2023-11-01T22:25:33.142Z,96560.81
2023-11-01T22:28:02.941Z,96543.09
2023-11-01T22:30:34.993Z,96535.91
2023-11-01T22:33:07.939Z,96532.56
2023-11-01T22:35:40.526Z,96518.25
2023-11-01T22:38:09.105Z,96510.72
2023-11-01T22:40:36.455Z,96498.28
2023-11-01T22:43:04.228Z,96486.13
2023-11-01T22:45:36.492Z,96478.25
2023-11-01T22:48:04.533Z,96472.03
2023-11-01T22:50:31.725Z,96462.03
2023-11-01T22:52:59.166Z,96447.03
2023-11-01T22:55:40.519Z,96443.38
2023-11-01T23:01:01.586Z,96417.38
2023-11-01T23:03:29.168Z,96408.88
2023-11-01T23:05:59.571Z,96406.66
2023-11-01T23:11:18.131Z,96391.38
2023-11-01T23:13:45.909Z,96380.25
2023-11-01T23:16:15.390Z,96378.91
2023-11-01T23:18:42.727Z,96372.25
2023-11-01T23:21:09.633Z,96360.31
2023-11-01T23:23:38.333Z,96355.66
2023-11-01T23:26:06.637Z,96347.34
2023-11-01T23:28:46.205Z,96335.06
2023-11-01T23:31:14.701Z,96330.41
2023-11-01T23:33:42.097Z,96312.63
2023-11-01T23:36:14.189Z,96297.94
2023-11-01T23:38:48.105Z,96287.72
2023-11-01T23:41:31.743Z,96281.53
2023-11-01T23:44:00.874Z,96285.53
2023-11-01T23:46:31.154Z,96277.84
2023-11-01T23:48:58.075Z,96266.97
2023-11-01T23:51:56.794Z,96269.94
2023-11-01T23:54:23.696Z,96252.00
2023-11-01T23:56:51.192Z,96250.91
2023-11-01T23:59:18.486Z,96231.00
